createdAt,value
2018-05-13T00:00:41.548Z,100417.36
2018-05-13T00:03:10.013Z,100416.89
2018-05-13T00:05:38.395Z,100415.59
2018-05-13T00:08:06.803Z,100414.61
2018-05-13T00:10:35.198Z,100410.14
2018-05-13T00:13:03.583Z,100416.27
2018-05-13T00:15:32.027Z,100411.53
2018-05-13T00:18:00.525Z,100418.98
2018-05-13T00:20:28.915Z,100419.02
2018-05-13T00:22:57.303Z,100412.53
2018-05-13T00:25:25.701Z,100408.62
2018-05-13T00:27:54.853Z,100412.12
2018-05-13T00:30:23.253Z,100410.86
2018-05-13T00:32:51.659Z,100416.52
2018-05-13T00:35:20.088Z,100410.44
2018-05-13T00:37:49.229Z,100415.22
2018-05-13T00:40:17.700Z,100411.31
2018-05-13T00:42:46.085Z,100411.75
2018-05-13T00:45:14.553Z,100416.99
2018-05-13T00:47:43.731Z,100414.38
2018-05-13T00:50:12.109Z,100415.23
2018-05-13T00:52:40.488Z,100408.25
2018-05-13T00:55:08.929Z,100417.83
2018-05-13T00:57:37.351Z,100410.86
2018-05-13T01:00:05.724Z,100416.05
2018-05-13T01:02:34.117Z,100417.39
2018-05-13T01:05:02.514Z,100418.23
2018-05-13T01:07:30.921Z,100428.66
2018-05-13T01:10:00.077Z,100431.18
2018-05-13T01:12:28.633Z,100419.80
2018-05-13T01:14:57.036Z,100430.73
2018-05-13T01:17:25.421Z,100418.44
2018-05-13T01:19:53.823Z,100428.34
2018-05-13T01:22:22.215Z,100428.98
2018-05-13T01:24:50.601Z,100429.17
2018-05-13T01:27:18.979Z,100421.66
2018-05-13T01:29:47.421Z,100420.20
2018-05-13T01:32:15.886Z,100427.36
2018-05-13T01:34:44.275Z,100423.61
2018-05-13T01:37:12.652Z,100418.52
2018-05-13T01:39:41.095Z,100420.33
2018-05-13T01:42:09.465Z,100415.98
2018-05-13T01:44:37.848Z,100411.19
2018-05-13T01:47:06.233Z,100416.94
2018-05-13T01:49:34.617Z,100422.95
2018-05-13T01:52:02.990Z,100414.25
2018-05-13T01:54:31.379Z,100419.19
2018-05-13T01:56:59.755Z,100414.45
2018-05-13T01:59:28.207Z,100412.02
2018-05-13T02:01:56.597Z,100416.05
2018-05-13T02:04:25.000Z,100412.27
2018-05-13T02:06:53.367Z,100413.53
2018-05-13T02:09:21.746Z,100423.67
2018-05-13T02:11:50.152Z,100426.07
2018-05-13T02:14:18.517Z,100416.41
2018-05-13T02:16:46.890Z,100418.92
2018-05-13T02:19:15.313Z,100427.62
2018-05-13T02:21:44.506Z,100414.91
2018-05-13T02:24:12.885Z,100413.22
2018-05-13T02:26:42.084Z,100411.88
2018-05-13T02:29:11.289Z,100415.30
2018-05-13T02:31:39.670Z,100416.53
2018-05-13T02:34:08.054Z,100421.10
2018-05-13T02:36:36.426Z,100414.77
2018-05-13T02:39:04.834Z,100429.59
2018-05-13T02:41:33.222Z,100428.70
2018-05-13T02:44:01.599Z,100434.38
2018-05-13T02:46:29.980Z,100430.30
2018-05-13T02:48:58.360Z,100440.93
2018-05-13T02:51:27.511Z,100441.41
2018-05-13T02:53:55.936Z,100440.20
2018-05-13T02:56:24.373Z,100441.18
2018-05-13T02:58:53.516Z,100448.09
2018-05-13T03:01:21.900Z,100442.11
2018-05-13T03:03:50.273Z,100435.41
2018-05-13T03:06:18.861Z,100443.91
2018-05-13T03:08:47.238Z,100448.03
2018-05-13T03:11:15.607Z,100451.01
2018-05-13T03:13:44.074Z,100446.61
2018-05-13T03:16:13.241Z,100450.27
2018-05-13T03:18:41.637Z,100454.66
2018-05-13T03:21:10.021Z,100466.11
2018-05-13T03:23:38.398Z,100458.02
2018-05-13T03:26:06.815Z,100440.65
2018-05-13T03:28:36.062Z,100449.64
2018-05-13T03:31:05.325Z,100451.69
2018-05-13T03:33:34.480Z,100457.72
2018-05-13T03:36:02.863Z,100456.94
2018-05-13T03:38:31.289Z,100446.97
2018-05-13T03:41:00.418Z,100444.25
2018-05-13T03:43:28.815Z,100447.13
2018-05-13T03:45:57.212Z,100450.43
2018-05-13T03:48:25.622Z,100448.67
2018-05-13T03:50:53.994Z,100450.24
2018-05-13T03:53:22.387Z,100447.17
2018-05-13T03:55:50.799Z,100448.27
2018-05-13T03:58:19.185Z,100452.23
2018-05-13T04:00:47.586Z,100458.07
2018-05-13T04:03:15.966Z,100453.84
2018-05-13T04:05:44.425Z,100460.48
2018-05-13T04:08:49.009Z,100459.30
2018-05-13T04:11:35.114Z,100460.98
2018-05-13T04:14:21.892Z,100463.70
2018-05-13T04:16:50.293Z,100466.89
2018-05-13T04:19:19.450Z,100455.59
2018-05-13T04:21:47.847Z,100460.91
2018-05-13T04:24:16.249Z,100458.27
2018-05-13T04:26:44.656Z,100451.67
2018-05-13T04:29:13.798Z,100450.84
2018-05-13T04:31:42.207Z,100445.19
2018-05-13T04:34:10.610Z,100453.45
2018-05-13T04:36:38.996Z,100451.70
2018-05-13T04:39:08.174Z,100447.31
2018-05-13T04:41:36.577Z,100439.80
2018-05-13T04:44:05.739Z,100429.80
2018-05-13T04:46:34.126Z,100433.75
2018-05-13T04:49:02.527Z,100434.98
2018-05-13T04:51:30.926Z,100433.44
2018-05-13T04:53:59.358Z,100438.50
2018-05-13T04:56:27.765Z,100446.77
2018-05-13T04:58:56.958Z,100455.88
2018-05-13T05:01:25.350Z,100454.04
2018-05-13T05:03:53.731Z,100462.16
2018-05-13T05:06:22.909Z,100469.33
2018-05-13T05:08:51.382Z,100478.28
2018-05-13T05:11:19.681Z,100482.70
2018-05-13T05:13:48.062Z,100495.94
2018-05-13T05:16:17.301Z,100496.55
2018-05-13T05:18:45.701Z,100500.41
2018-05-13T05:21:14.159Z,100506.08
2018-05-13T05:23:42.559Z,100513.55
2018-05-13T05:26:10.947Z,100524.41
2018-05-13T05:28:39.331Z,100523.86
2018-05-13T05:31:07.747Z,100527.09
2018-05-13T05:33:36.155Z,100523.42
2018-05-13T05:36:05.395Z,100529.33
2018-05-13T05:38:33.772Z,100538.13
2018-05-13T05:41:02.187Z,100543.67
2018-05-13T05:43:31.365Z,100545.08
2018-05-13T05:45:59.761Z,100549.56
2018-05-13T05:48:29.048Z,100547.25
2018-05-13T05:50:57.328Z,100568.29
2018-05-13T05:53:25.708Z,100567.81
2018-05-13T05:55:54.084Z,100580.89
2018-05-13T05:58:22.585Z,100585.32
2018-05-13T06:00:50.858Z,100588.95
2018-05-13T06:03:20.150Z,100583.02
2018-05-13T06:05:48.468Z,100592.85
2018-05-13T06:08:17.662Z,100581.08
2018-05-13T06:10:46.814Z,100553.48
2018-05-13T06:13:15.202Z,100544.78
2018-05-13T06:15:43.590Z,100548.56
2018-05-13T06:18:11.965Z,100551.50
2018-05-13T06:20:40.365Z,100548.94
2018-05-13T06:23:08.729Z,100543.30
2018-05-13T06:25:37.165Z,100546.86
2018-05-13T06:28:06.319Z,100547.61
2018-05-13T06:30:34.733Z,100551.51
2018-05-13T06:33:03.121Z,100554.50
2018-05-13T06:35:31.546Z,100556.88
2018-05-13T06:37:59.946Z,100551.08
2018-05-13T06:40:28.415Z,100547.95
2018-05-13T06:42:56.799Z,100543.94
2018-05-13T06:45:25.233Z,100542.84
2018-05-13T06:47:53.650Z,100540.08
2018-05-13T06:50:22.801Z,100538.77
2018-05-13T06:52:51.187Z,100541.19
2018-05-13T06:55:19.574Z,100558.95
2018-05-13T06:57:47.981Z,100575.47
2018-05-13T07:00:16.415Z,100574.31
2018-05-13T07:02:44.860Z,100562.94
2018-05-13T07:05:13.211Z,100570.88
2018-05-13T07:07:41.621Z,100580.59
2018-05-13T07:10:10.820Z,100581.53
2018-05-13T07:12:39.204Z,100583.52
2018-05-13T07:15:07.585Z,100576.77
2018-05-13T07:17:36.040Z,100574.81
2018-05-13T07:20:04.431Z,100579.13
2018-05-13T07:22:34.345Z,100593.81
2018-05-13T07:25:03.011Z,100600.78
2018-05-13T07:27:31.407Z,100610.00
2018-05-13T07:29:59.819Z,100614.28
2018-05-13T07:32:28.273Z,100621.07
2018-05-13T07:34:56.702Z,100647.37
2018-05-13T07:37:25.876Z,100665.86
2018-05-13T07:39:55.038Z,100672.05
2018-05-13T07:42:23.430Z,100678.69
2018-05-13T07:44:52.616Z,100669.42
2018-05-13T07:47:21.009Z,100647.98
2018-05-13T07:49:49.421Z,100624.92
2018-05-13T07:52:17.823Z,100618.11
2018-05-13T07:54:46.251Z,100625.75
2018-05-13T07:57:14.680Z,100635.20
2018-05-13T07:59:44.580Z,100657.21
2018-05-13T08:02:13.016Z,100666.39
2018-05-13T08:04:42.169Z,100664.39
2018-05-13T08:07:10.542Z,100645.72
2018-05-13T08:09:38.948Z,100639.95
2018-05-13T08:12:07.373Z,100631.36
2018-05-13T08:14:35.754Z,100635.97
2018-05-13T08:17:05.026Z,100642.97
2018-05-13T08:19:33.429Z,100644.73
2018-05-13T08:22:02.613Z,100634.23
2018-05-13T08:24:31.076Z,100630.83
2018-05-13T08:26:59.484Z,100610.23
2018-05-13T08:29:27.915Z,100595.61
2018-05-13T08:31:56.297Z,100583.53
2018-05-13T08:34:24.752Z,100583.70
2018-05-13T08:36:53.905Z,100608.96
2018-05-13T08:39:23.226Z,100624.64
2018-05-13T08:41:52.755Z,100631.03
2018-05-13T08:44:21.110Z,100638.18
2018-05-13T08:46:49.494Z,100662.09
2018-05-13T08:49:17.892Z,100672.34
2018-05-13T08:51:46.309Z,100676.17
2018-05-13T08:54:14.788Z,100667.48
2018-05-13T08:56:44.023Z,100662.10
2018-05-13T08:59:12.459Z,100670.81
2018-05-13T09:01:40.854Z,100670.09
2018-05-13T09:04:10.001Z,100670.45
2018-05-13T09:06:38.408Z,100677.36
2018-05-13T09:09:06.865Z,100676.23
2018-05-13T09:11:35.243Z,100670.84
2018-05-13T09:14:03.723Z,100677.95
2018-05-13T09:16:32.091Z,100677.87
2018-05-13T09:19:00.523Z,100678.05
2018-05-13T09:21:29.033Z,100683.90
2018-05-13T09:23:57.475Z,100692.41
2018-05-13T09:26:25.903Z,100703.00
2018-05-13T09:28:55.093Z,100700.92
2018-05-13T09:31:23.521Z,100699.94
2018-05-13T09:33:51.936Z,100699.10
2018-05-13T09:36:21.167Z,100696.53
2018-05-13T09:38:49.565Z,100695.29
2018-05-13T09:41:20.752Z,100692.66
2018-05-13T09:43:49.202Z,100704.03
2018-05-13T09:46:18.365Z,100708.84
2018-05-13T09:48:47.810Z,100710.25
2018-05-13T09:51:17.002Z,100716.74
2018-05-13T09:53:45.398Z,100702.75
2018-05-13T09:56:14.565Z,100694.95
2018-05-13T09:58:43.205Z,100691.08
2018-05-13T10:01:11.610Z,100683.22
2018-05-13T10:03:40.044Z,100686.75
2018-05-13T10:06:09.229Z,100688.49
2018-05-13T10:08:37.632Z,100676.16
2018-05-13T10:11:06.798Z,100672.67
2018-05-13T10:13:35.453Z,100677.58
2018-05-13T10:16:06.515Z,100679.80
2018-05-13T10:18:37.049Z,100682.45
2018-05-13T10:21:05.515Z,100691.16
2018-05-13T10:23:35.329Z,100695.97
2018-05-13T10:26:05.095Z,100705.12
2018-05-13T10:28:33.523Z,100703.38
2018-05-13T10:31:03.716Z,100702.94
2018-05-13T10:33:32.243Z,100705.95
2018-05-13T10:36:00.809Z,100713.79
2018-05-13T10:38:29.336Z,100714.25
2018-05-13T10:40:57.758Z,100721.64
2018-05-13T10:43:26.922Z,100713.35
2018-05-13T10:45:56.240Z,100709.02
2018-05-13T10:48:24.636Z,100702.87
2018-05-13T10:50:53.184Z,100705.08
2018-05-13T10:53:21.574Z,100697.17
2018-05-13T10:55:50.353Z,100694.51
2018-05-13T10:58:18.744Z,100689.26
2018-05-13T11:00:47.930Z,100701.02
2018-05-13T11:03:17.085Z,100708.49
2018-05-13T11:05:45.528Z,100713.70
2018-05-13T11:08:13.944Z,100719.41
2018-05-13T11:10:42.331Z,100722.95
2018-05-13T11:13:10.772Z,100726.41
2018-05-13T11:15:39.174Z,100721.98
2018-05-13T11:18:11.185Z,100715.01
2018-05-13T11:20:40.382Z,100710.66
2018-05-13T11:23:09.578Z,100712.44
2018-05-13T11:25:37.983Z,100713.86
2018-05-13T11:28:06.429Z,100731.30
2018-05-13T11:30:34.857Z,100725.11
2018-05-13T11:33:03.327Z,100721.64
2018-05-13T11:35:31.747Z,100715.95
2018-05-13T11:38:00.148Z,100707.27
2018-05-13T11:40:28.683Z,100699.95
2018-05-13T11:42:57.099Z,100696.36
2018-05-13T11:45:25.516Z,100688.16
2018-05-13T11:47:53.918Z,100688.56
2018-05-13T11:50:22.340Z,100696.42
2018-05-13T11:52:50.761Z,100701.20
2018-05-13T11:55:19.174Z,100703.41
2018-05-13T11:57:48.369Z,100708.16
2018-05-13T12:00:16.807Z,100714.30
2018-05-13T12:02:45.206Z,100712.13
2018-05-13T12:05:13.638Z,100708.61
2018-05-13T12:07:42.044Z,100706.89
2018-05-13T12:10:10.561Z,100707.25
2018-05-13T12:12:38.972Z,100700.32
2018-05-13T12:15:07.401Z,100710.39
2018-05-13T12:17:35.786Z,100712.13
2018-05-13T12:20:04.198Z,100712.14
2018-05-13T12:22:32.575Z,100716.92
2018-05-13T12:25:00.971Z,100715.22
2018-05-13T12:27:29.438Z,100716.50
2018-05-13T12:29:57.831Z,100715.20
2018-05-13T12:32:26.267Z,100704.25
2018-05-13T12:34:55.462Z,100702.47
2018-05-13T12:37:23.882Z,100693.31
2018-05-13T12:39:52.270Z,100696.77
2018-05-13T12:42:20.658Z,100687.08
2018-05-13T12:44:49.125Z,100693.25
2018-05-13T12:47:17.561Z,100687.13
2018-05-13T12:49:45.968Z,100686.64
2018-05-13T12:52:15.137Z,100687.53
2018-05-13T12:54:43.555Z,100694.11
2018-05-13T12:57:12.714Z,100696.35
2018-05-13T12:59:41.119Z,100691.95
2018-05-13T13:02:09.544Z,100675.28
2018-05-13T13:04:37.947Z,100685.83
2018-05-13T13:07:06.334Z,100692.89
2018-05-13T13:09:34.813Z,100692.00
2018-05-13T13:12:03.190Z,100671.00
2018-05-13T13:14:31.598Z,100654.83
2018-05-13T13:17:00.022Z,100671.56
2018-05-13T13:19:29.229Z,100669.78
2018-05-13T13:21:58.374Z,100648.77
2018-05-13T13:24:26.943Z,100637.46
2018-05-13T13:26:55.403Z,100640.54
2018-05-13T13:29:24.589Z,100634.86
2018-05-13T13:31:53.774Z,100634.87
2018-05-13T13:34:22.229Z,100626.98
2018-05-13T13:36:51.566Z,100626.55
2018-05-13T13:39:20.001Z,100634.38
2018-05-13T13:41:48.401Z,100630.90
2018-05-13T13:44:16.827Z,100629.55
2018-05-13T13:46:45.210Z,100628.70
2018-05-13T13:49:13.651Z,100624.38
2018-05-13T13:51:42.049Z,100622.56
2018-05-13T13:54:10.533Z,100624.36
2018-05-13T13:56:38.981Z,100615.61
2018-05-13T13:59:07.446Z,100614.73
2018-05-13T14:01:36.639Z,100615.68
2018-05-13T14:04:05.071Z,100620.05
2018-05-13T14:06:33.515Z,100620.50
2018-05-13T14:09:02.719Z,100611.37
2018-05-13T14:11:31.877Z,100600.06
2018-05-13T14:14:00.316Z,100594.45
2018-05-13T14:16:28.874Z,100596.58
2018-05-13T14:18:57.294Z,100598.73
2018-05-13T14:21:25.681Z,100603.12
2018-05-13T14:23:54.143Z,100604.48
2018-05-13T14:26:22.511Z,100605.30
2018-05-13T14:28:50.931Z,100596.63
2018-05-13T14:31:19.341Z,100597.44
2018-05-13T14:33:47.760Z,100598.70
2018-05-13T14:36:16.146Z,100601.34
2018-05-13T14:38:44.582Z,100594.77
2018-05-13T14:41:13.071Z,100603.06
2018-05-13T14:43:41.444Z,100603.56
2018-05-13T14:46:09.855Z,100606.56
2018-05-13T14:48:38.271Z,100614.48
2018-05-13T14:51:07.463Z,100610.59
2018-05-13T14:53:35.886Z,100602.72
2018-05-13T14:56:04.317Z,100591.41
2018-05-13T14:58:32.699Z,100586.63
2018-05-13T15:01:01.132Z,100578.81
2018-05-13T15:03:29.556Z,100590.14
2018-05-13T15:05:57.981Z,100598.48
2018-05-13T15:08:27.153Z,100615.90
2018-05-13T15:10:55.575Z,100617.16
2018-05-13T15:13:24.843Z,100611.98
2018-05-13T15:15:54.042Z,100611.95
2018-05-13T15:18:22.510Z,100613.75
2018-05-13T15:20:51.685Z,100618.52
2018-05-13T15:23:20.119Z,100624.15
2018-05-13T15:25:48.556Z,100623.23
2018-05-13T15:28:16.959Z,100634.17
2018-05-13T15:30:46.153Z,100633.77
2018-05-13T15:33:14.572Z,100641.17
2018-05-13T15:35:43.014Z,100646.80
2018-05-13T15:38:11.498Z,100641.59
2018-05-13T15:40:39.934Z,100639.80
2018-05-13T15:43:08.462Z,100641.09
2018-05-13T15:45:36.805Z,100638.48
2018-05-13T15:48:05.986Z,100635.45
2018-05-13T15:50:34.398Z,100631.11
2018-05-13T15:53:03.594Z,100624.09
2018-05-13T15:55:32.078Z,100627.09
2018-05-13T15:58:00.513Z,100636.33
2018-05-13T16:00:28.927Z,100642.83
2018-05-13T16:02:57.357Z,100644.50
2018-05-13T16:05:25.804Z,100637.45
2018-05-13T16:07:54.236Z,100639.30
2018-05-13T16:10:22.642Z,100634.92
2018-05-13T16:12:51.034Z,100640.20
2018-05-13T16:15:19.795Z,100635.00
2018-05-13T16:17:48.194Z,100630.63
2018-05-13T16:20:16.631Z,100632.36
2018-05-13T16:22:45.815Z,100630.63
2018-05-13T16:25:14.291Z,100635.00
2018-05-13T16:27:42.746Z,100627.20
2018-05-13T16:30:11.278Z,100622.80
2018-05-13T16:32:39.595Z,100615.39
2018-05-13T16:35:08.039Z,100610.55
2018-05-13T16:37:36.460Z,100617.07
2018-05-13T16:40:04.902Z,100628.03
2018-05-13T16:42:33.366Z,100633.69
2018-05-13T16:45:02.561Z,100627.97
2018-05-13T16:47:30.974Z,100619.27
2018-05-13T16:49:59.742Z,100613.19
2018-05-13T16:52:28.153Z,100622.36
2018-05-13T16:54:56.567Z,100611.00
2018-05-13T16:57:25.739Z,100614.50
2018-05-13T16:59:54.145Z,100608.41
2018-05-13T17:02:23.365Z,100614.07
2018-05-13T17:04:51.856Z,100621.95
2018-05-13T17:07:20.279Z,100624.06
2018-05-13T17:09:48.771Z,100631.91
2018-05-13T17:12:17.166Z,100641.11
2018-05-13T17:14:45.611Z,100647.16
2018-05-13T17:17:14.050Z,100657.70
2018-05-13T17:22:05.585Z,100662.10
2018-05-13T17:24:34.030Z,100660.81
2018-05-13T17:27:02.460Z,100659.03
2018-05-13T17:29:31.619Z,100667.75
2018-05-13T17:32:00.040Z,100666.02
2018-05-13T17:34:28.431Z,100655.97
2018-05-13T17:36:57.614Z,100649.84
2018-05-13T17:39:26.099Z,100640.27
2018-05-13T17:41:54.530Z,100638.52
2018-05-13T17:44:23.067Z,100648.98
2018-05-13T17:46:51.495Z,100650.77
2018-05-13T17:49:19.914Z,100653.83
2018-05-13T17:51:48.335Z,100656.01
2018-05-13T17:54:16.752Z,100649.91
2018-05-13T17:56:45.165Z,100657.30
2018-05-13T17:59:13.607Z,100653.40
2018-05-13T18:01:42.018Z,100656.84
2018-05-13T18:04:10.431Z,100659.06
2018-05-13T18:06:38.864Z,100659.90
2018-05-13T18:09:07.298Z,100658.56
2018-05-13T18:11:35.728Z,100652.95
2018-05-13T18:14:04.955Z,100656.87
2018-05-13T18:16:33.370Z,100657.74
2018-05-13T18:19:01.786Z,100662.55
2018-05-13T18:21:31.039Z,100670.83
2018-05-13T18:23:59.375Z,100669.50
2018-05-13T18:26:28.567Z,100664.27
2018-05-13T18:28:57.746Z,100672.14
2018-05-13T18:31:26.182Z,100674.73
2018-05-13T18:33:54.603Z,100668.20
2018-05-13T18:36:23.022Z,100676.05
2018-05-13T18:38:52.309Z,100673.45
2018-05-13T18:41:20.680Z,100676.03
2018-05-13T18:43:49.129Z,100670.83
2018-05-13T18:46:17.574Z,100677.37
2018-05-13T18:48:46.738Z,100667.75
2018-05-13T18:51:15.167Z,100663.85
2018-05-13T18:53:44.980Z,100664.27
2018-05-13T18:56:14.157Z,100662.09
2018-05-13T18:58:42.590Z,100662.11
2018-05-13T19:01:11.003Z,100658.63
2018-05-13T19:03:39.453Z,100661.67
2018-05-13T19:06:07.901Z,100661.67
2018-05-13T19:08:36.341Z,100659.94
2018-05-13T19:11:04.770Z,100658.20
2018-05-13T19:13:33.683Z,100658.63
2018-05-13T19:16:02.839Z,100657.73
2018-05-13T19:18:31.247Z,100659.52
2018-05-13T19:20:59.660Z,100658.22
2018-05-13T19:23:28.083Z,100659.94
2018-05-13T19:25:56.496Z,100661.66
2018-05-13T19:28:24.955Z,100656.88
2018-05-13T19:30:53.405Z,100652.55
2018-05-13T19:33:22.574Z,100658.19
2018-05-13T19:35:51.804Z,100659.05
2018-05-13T19:38:20.266Z,100667.33
2018-05-13T19:40:49.448Z,100670.39
2018-05-13T19:43:17.920Z,100671.26
2018-05-13T19:45:46.339Z,100683.90
2018-05-13T19:48:15.633Z,100679.52
2018-05-13T19:50:44.058Z,100673.00
2018-05-13T19:53:12.541Z,100673.88
2018-05-13T19:55:40.959Z,100673.86
2018-05-13T19:58:09.371Z,100679.09
2018-05-13T20:00:37.804Z,100682.59
2018-05-13T20:03:06.232Z,100682.59
2018-05-13T20:05:34.742Z,100684.77
2018-05-13T20:08:03.907Z,100683.88
2018-05-13T20:10:32.372Z,100686.48
2018-05-13T20:13:00.772Z,100689.97
2018-05-13T20:15:29.317Z,100690.84
2018-05-13T20:17:57.705Z,100691.28
2018-05-13T20:20:26.126Z,100690.84
2018-05-13T20:23:12.201Z,100696.50
2018-05-13T20:25:40.701Z,100700.87
2018-05-13T20:28:09.119Z,100705.66
2018-05-13T20:30:38.335Z,100699.97
2018-05-13T20:33:06.856Z,100697.39
2018-05-13T20:35:35.259Z,100702.14
2018-05-13T20:38:03.706Z,100707.81
2018-05-13T20:40:32.120Z,100715.66
2018-05-13T20:43:00.511Z,100721.31
2018-05-13T20:45:28.935Z,100724.77
2018-05-13T20:47:57.353Z,100725.60
2018-05-13T20:50:25.745Z,100737.35
2018-05-13T20:52:54.163Z,100737.36
2018-05-13T20:55:22.602Z,100737.36
2018-05-13T20:57:51.045Z,100752.97
2018-05-13T21:00:20.230Z,100760.41
2018-05-13T21:02:48.673Z,100765.18
2018-05-13T21:05:17.227Z,100756.06
2018-05-13T21:07:46.551Z,100760.42
2018-05-13T21:10:15.979Z,100756.97
2018-05-13T21:12:44.483Z,100748.28
2018-05-13T21:15:12.906Z,100752.20
2018-05-13T21:17:41.352Z,100745.23
2018-05-13T21:20:09.765Z,100735.65
2018-05-13T21:22:38.949Z,100728.25
2018-05-13T21:25:07.423Z,100729.10
2018-05-13T21:27:35.835Z,100724.35
2018-05-13T21:30:05.007Z,100723.92
2018-05-13T21:32:33.441Z,100721.27
2018-05-13T21:35:01.915Z,100712.58
2018-05-13T21:37:30.324Z,100718.19
2018-05-13T21:39:58.807Z,100715.14
2018-05-13T21:42:27.317Z,100715.99
2018-05-13T21:44:55.711Z,100717.28
2018-05-13T21:47:24.185Z,100709.00
2018-05-13T21:49:52.611Z,100703.38
2018-05-13T21:52:21.784Z,100702.94
2018-05-13T21:54:50.220Z,100690.77
2018-05-13T21:57:18.646Z,100684.66
2018-05-13T21:59:47.042Z,100682.88
2018-05-13T22:02:15.510Z,100677.67
2018-05-13T22:05:02.669Z,100686.80
2018-05-13T22:07:31.102Z,100676.81
2018-05-13T22:09:59.553Z,100671.59
2018-05-13T22:12:27.999Z,100667.70
2018-05-13T22:14:56.574Z,100665.91
2018-05-13T22:17:25.156Z,100651.50
2018-05-13T22:19:54.242Z,100646.36
2018-05-13T22:22:22.685Z,100651.14
2018-05-13T22:24:51.130Z,100656.34
2018-05-13T22:27:21.069Z,100657.63
2018-05-13T22:29:50.309Z,100661.94
2018-05-13T22:32:18.734Z,100663.66
2018-05-13T22:34:47.690Z,100660.61
2018-05-13T22:37:16.238Z,100661.47
2018-05-13T22:39:46.356Z,100656.69
2018-05-13T22:42:15.626Z,100650.28
2018-05-13T22:44:44.052Z,100650.27
2018-05-13T22:47:13.214Z,100649.80
2018-05-13T22:49:41.622Z,100640.70
2018-05-13T22:52:10.809Z,100638.11
2018-05-13T22:54:39.286Z,100626.83
2018-05-13T22:57:07.700Z,100619.00
2018-05-13T22:59:36.899Z,100607.27
2018-05-13T23:02:06.072Z,100596.84
2018-05-13T23:04:34.479Z,100605.94
2018-05-13T23:07:03.690Z,100602.45
2018-05-13T23:09:32.889Z,100598.07
2018-05-13T23:12:02.145Z,100604.59
2018-05-13T23:14:30.542Z,100621.58
2018-05-13T23:16:59.770Z,100622.39
2018-05-13T23:19:28.188Z,100625.41
2018-05-13T23:21:56.601Z,100617.66
2018-05-13T23:24:25.044Z,100618.10
2018-05-13T23:26:54.221Z,100618.91
2018-05-13T23:29:22.627Z,100621.94
2018-05-13T23:31:51.828Z,100615.41
2018-05-13T23:34:21.013Z,100616.73
2018-05-13T23:36:49.432Z,100611.58
2018-05-13T23:39:17.927Z,100615.95
2018-05-13T23:41:46.354Z,100613.77
2018-05-13T23:44:14.835Z,100610.26
2018-05-13T23:46:43.337Z,100615.08
2018-05-13T23:49:11.864Z,100612.02
2018-05-13T23:51:40.293Z,100611.17
2018-05-13T23:54:08.727Z,100608.56
2018-05-13T23:56:37.145Z,100607.68
2018-05-13T23:59:05.607Z,100610.64
